^^
Saratoga-Weather Station Historical Data
Daily Summary for July 25, 2021 Units:  Both    English   Metric
Daily Weekly Monthly Yearly Custom
  High: Low: Average:
Temperature: 61.3 °F /  16.3 °C 56.8 °F /  13.8 °C 58.8 °F /  14.9 °C
Dew Point: 60.3 °F /  15.7 °C 55.9 °F /  13.3 °C 57.7 °F /  14.3 °C
Humidity: 97% 96% 97%
Wind Speed: 2mph /  3.2km/h - 0.1mph /  0.1km/h
Wind Gust: 2mph /  3.2km/h - -
Wind- - SSW
Pressure: 29.8 in /  1008.8 hPa 29.8 in /  1008.1 hPa -
Precipitation: 0 in /  0.0 mm    
Historical Graphs
 
 
Tabular Data for July 25, 2021
Time Temperature Dew Point Pressure Wind Wind Speed Wind Gust Humidity Rainfall Rate (Hourly) solar
00:04 61.2 °F /  16.2 °C 60.1 °F /  15.6 °C 29.8in /  1008.8hPa Calm   1mph /  1.6km/h 96% 0in /  0.0mm 0 W/m2
00:09 61.3 °F /  16.3 °C 60.3 °F /  15.7 °C 29.8in /  1008.8hPa Calm     96% 0in /  0.0mm 0 W/m2
00:14 61.3 °F /  16.3 °C 60.3 °F /  15.7 °C 29.8in /  1008.8hPa Calm     96% 0in /  0.0mm 0 W/m2
00:19 61.3 °F /  16.3 °C 60.3 °F /  15.7 °C 29.8in /  1008.8hPa SW 0.9mph /  1.4km/h 1mph /  1.6km/h 96% 0in /  0.0mm 0 W/m2
00:24 61.3 °F /  16.3 °C 60.3 °F /  15.7 °C 29.8in /  1008.8hPa SW 0.9mph /  1.4km/h 1mph /  1.6km/h 96% 0in /  0.0mm 0 W/m2
00:29 61.3 °F /  16.3 °C 60.3 °F /  15.7 °C 29.8in /  1008.8hPa Calm     96% 0in /  0.0mm 0 W/m2
00:34 61.2 °F /  16.2 °C 60.1 °F /  15.6 °C 29.8in /  1008.8hPa SSW 0.9mph /  1.4km/h 2mph /  3.2km/h 96% 0in /  0.0mm 0 W/m2
00:39 61.2 °F /  16.2 °C 60.1 °F /  15.6 °C 29.8in /  1008.5hPa Calm   1mph /  1.6km/h 96% 0in /  0.0mm 0 W/m2
00:44 61 °F /  16.1 °C 59.9 °F /  15.5 °C 29.8in /  1008.5hPa Calm   2mph /  3.2km/h 96% 0in /  0.0mm 0 W/m2
00:49 60.8 °F /  16 °C 59.7 °F /  15.4 °C 29.8in /  1008.5hPa Calm     96% 0in /  0.0mm 0 W/m2
00:54 60.6 °F /  15.9 °C 59.5 °F /  15.3 °C 29.8in /  1008.5hPa Calm     96% 0in /  0.0mm 0 W/m2
00:59 60.4 °F /  15.8 °C 59.4 °F /  15.2 °C 29.8in /  1008.5hPa Calm     96% 0in /  0.0mm 0 W/m2
01:04 60.3 °F /  15.7 °C 59.2 °F /  15.1 °C 29.8in /  1008.5hPa Calm   1mph /  1.6km/h 96% 0in /  0.0mm 0 W/m2
01:09 60.1 °F /  15.6 °C 59 °F /  15 °C 29.8in /  1008.5hPa SSW 0.9mph /  1.4km/h 1mph /  1.6km/h 96% 0in /  0.0mm 0 W/m2
01:14 60.1 °F /  15.6 °C 59 °F /  15 °C 29.8in /  1008.5hPa SSW 0.9mph /  1.4km/h 2mph /  3.2km/h 96% 0in /  0.0mm 0 W/m2
01:19 60.1 °F /  15.6 °C 59 °F /  15 °C 29.8in /  1008.5hPa SSW 0.9mph /  1.4km/h 1mph /  1.6km/h 96% 0in /  0.0mm 0 W/m2
01:24 59.9 °F /  15.5 °C 58.8 °F /  14.9 °C 29.8in /  1008.8hPa Calm     96% 0in /  0.0mm 0 W/m2
01:29 59.7 °F /  15.4 °C 58.6 °F /  14.8 °C 29.8in /  1008.5hPa Calm     96% 0in /  0.0mm 0 W/m2
01:34 59.7 °F /  15.4 °C 58.6 °F /  14.8 °C 29.8in /  1008.5hPa Calm     96% 0in /  0.0mm 0 W/m2
01:39 59.7 °F /  15.4 °C 58.6 °F /  14.8 °C 29.8in /  1008.5hPa Calm     96% 0in /  0.0mm 0 W/m2
01:44 59.7 °F /  15.4 °C 58.6 °F /  14.8 °C 29.8in /  1008.8hPa Calm   1mph /  1.6km/h 96% 0in /  0.0mm 0 W/m2
01:49 59.7 °F /  15.4 °C 58.6 °F /  14.8 °C 29.8in /  1008.8hPa Calm     96% 0in /  0.0mm 0 W/m2
01:54 59.7 °F /  15.4 °C 58.6 °F /  14.8 °C 29.8in /  1008.5hPa Calm     96% 0in /  0.0mm 0 W/m2
01:59 59.7 °F /  15.4 °C 58.6 °F /  14.8 °C 29.8in /  1008.8hPa Calm     96% 0in /  0.0mm 0 W/m2
02:04 59.5 °F /  15.3 °C 58.5 °F /  14.7 °C 29.8in /  1008.8hPa Calm     96% 0in /  0.0mm 0 W/m2
02:09 59.5 °F /  15.3 °C 58.5 °F /  14.7 °C 29.8in /  1008.8hPa Calm     96% 0in /  0.0mm 0 W/m2
02:14 59.5 °F /  15.3 °C 58.5 °F /  14.7 °C 29.8in /  1008.5hPa Calm     96% 0in /  0.0mm 0 W/m2
02:19 59.4 °F /  15.2 °C 58.3 °F /  14.6 °C 29.8in /  1008.5hPa Calm     96% 0in /  0.0mm 0 W/m2
02:24 59.4 °F /  15.2 °C 58.3 °F /  14.6 °C 29.8in /  1008.5hPa Calm     96% 0in /  0.0mm 0 W/m2
02:29 59.4 °F /  15.2 °C 58.3 °F /  14.6 °C 29.8in /  1008.5hPa Calm     96% 0in /  0.0mm 0 W/m2
02:34 59.2 °F /  15.1 °C 58.1 °F /  14.5 °C 29.8in /  1008.5hPa Calm     96% 0in /  0.0mm 0 W/m2
02:39 59.2 °F /  15.1 °C 58.1 °F /  14.5 °C 29.8in /  1008.5hPa Calm     96% 0in /  0.0mm 0 W/m2
02:44 59.2 °F /  15.1 °C 58.1 °F /  14.5 °C 29.8in /  1008.5hPa Calm     96% 0in /  0.0mm 0 W/m2
02:49 59.2 °F /  15.1 °C 58.1 °F /  14.5 °C 29.8in /  1008.5hPa SSW 2mph /  3.2km/h 2mph /  3.2km/h 96% 0in /  0.0mm 0 W/m2
02:54 59.2 °F /  15.1 °C 58.1 °F /  14.5 °C 29.8in /  1008.5hPa Calm     96% 0in /  0.0mm 0 W/m2
02:59 59.2 °F /  15.1 °C 58.1 °F /  14.5 °C 29.8in /  1008.5hPa Calm   1mph /  1.6km/h 96% 0in /  0.0mm 0 W/m2
03:04 59.2 °F /  15.1 °C 58.1 °F /  14.5 °C 29.8in /  1008.5hPa Calm     96% 0in /  0.0mm 0 W/m2
03:09 59 °F /  15 °C 57.9 °F /  14.4 °C 29.8in /  1008.5hPa Calm     96% 0in /  0.0mm 0 W/m2
03:14 58.8 °F /  14.9 °C 57.7 °F /  14.3 °C 29.8in /  1008.5hPa Calm     96% 0in /  0.0mm 0 W/m2
03:19 58.8 °F /  14.9 °C 57.7 °F /  14.3 °C 29.8in /  1008.5hPa Calm     96% 0in /  0.0mm 0 W/m2
03:24 58.6 °F /  14.8 °C 57.6 °F /  14.2 °C 29.8in /  1008.5hPa Calm     96% 0in /  0.0mm 0 W/m2
03:29 58.6 °F /  14.8 °C 57.6 °F /  14.2 °C 29.8in /  1008.5hPa Calm     96% 0in /  0.0mm 0 W/m2
03:34 58.6 °F /  14.8 °C 57.7 °F /  14.3 °C 29.8in /  1008.5hPa Calm     97% 0in /  0.0mm 0 W/m2
03:39 58.5 °F /  14.7 °C 57.4 °F /  14.1 °C 29.8in /  1008.5hPa Calm     96% 0in /  0.0mm 0 W/m2
03:44 58.5 °F /  14.7 °C 57.4 °F /  14.1 °C 29.8in /  1008.1hPa Calm     96% 0in /  0.0mm 0 W/m2
03:49 58.5 °F /  14.7 °C 57.4 °F /  14.1 °C 29.8in /  1008.1hPa Calm     96% 0in /  0.0mm 0 W/m2
03:54 58.5 °F /  14.7 °C 57.4 °F /  14.1 °C 29.8in /  1008.5hPa Calm     96% 0in /  0.0mm 0 W/m2
03:59 58.5 °F /  14.7 °C 57.4 °F /  14.1 °C 29.8in /  1008.1hPa Calm     96% 0in /  0.0mm 0 W/m2
04:04 58.3 °F /  14.6 °C 57.4 °F /  14.1 °C 29.8in /  1008.1hPa Calm     97% 0in /  0.0mm 0 W/m2
04:09 58.3 °F /  14.6 °C 57.4 °F /  14.1 °C 29.8in /  1008.1hPa Calm     97% 0in /  0.0mm 0 W/m2
04:14 58.1 °F /  14.5 °C 57.2 °F /  14 °C 29.8in /  1008.1hPa Calm     97% 0in /  0.0mm 0 W/m2
04:19 57.9 °F /  14.4 °C 56.8 °F /  13.8 °C 29.8in /  1008.1hPa Calm     96% 0in /  0.0mm 0 W/m2
04:24 57.9 °F /  14.4 °C 56.8 °F /  13.8 °C 29.8in /  1008.1hPa Calm     96% 0in /  0.0mm 0 W/m2
04:29 57.9 °F /  14.4 °C 57 °F /  13.9 °C 29.8in /  1008.1hPa Calm     97% 0in /  0.0mm 0 W/m2
04:34 57.9 °F /  14.4 °C 57 °F /  13.9 °C 29.8in /  1008.1hPa Calm     97% 0in /  0.0mm 0 W/m2
04:39 57.7 °F /  14.3 °C 56.8 °F /  13.8 °C 29.8in /  1008.1hPa Calm     97% 0in /  0.0mm 0 W/m2
04:44 57.7 °F /  14.3 °C 56.8 °F /  13.8 °C 29.8in /  1008.1hPa Calm     97% 0in /  0.0mm 0 W/m2
04:49 57.7 °F /  14.3 °C 56.8 °F /  13.8 °C 29.8in /  1008.1hPa Calm     97% 0in /  0.0mm 0 W/m2
04:54 57.7 °F /  14.3 °C 56.8 °F /  13.8 °C 29.8in /  1008.1hPa Calm     97% 0in /  0.0mm 0 W/m2
04:59 57.7 °F /  14.3 °C 56.8 °F /  13.8 °C 29.8in /  1008.1hPa Calm     97% 0in /  0.0mm 0 W/m2
05:04 57.7 °F /  14.3 °C 56.8 °F /  13.8 °C 29.8in /  1008.1hPa Calm     97% 0in /  0.0mm 0 W/m2
05:09 57.7 °F /  14.3 °C 56.8 °F /  13.8 °C 29.8in /  1008.1hPa ESE 2mph /  3.2km/h 2mph /  3.2km/h 97% 0in /  0.0mm 0 W/m2
05:14 57.7 °F /  14.3 °C 56.8 °F /  13.8 °C 29.8in /  1008.1hPa Calm     97% 0in /  0.0mm 0 W/m2
05:19 57.6 °F /  14.2 °C 56.7 °F /  13.7 °C 29.8in /  1008.1hPa Calm     97% 0in /  0.0mm 0 W/m2
05:24 57.6 °F /  14.2 °C 56.7 °F /  13.7 °C 29.8in /  1008.1hPa Calm     97% 0in /  0.0mm 0 W/m2
05:29 57.6 °F /  14.2 °C 56.7 °F /  13.7 °C 29.8in /  1008.1hPa Calm     97% 0in /  0.0mm 0 W/m2
05:35 57.4 °F /  14.1 °C 56.5 °F /  13.6 °C 29.8in /  1008.1hPa Calm     97% 0in /  0.0mm 0 W/m2
05:40 57.4 °F /  14.1 °C 56.5 °F /  13.6 °C 29.8in /  1008.1hPa Calm     97% 0in /  0.0mm 0 W/m2
05:45 57.2 °F /  14 °C 56.3 °F /  13.5 °C 29.8in /  1008.1hPa Calm     97% 0in /  0.0mm 0 W/m2
05:50 57.2 °F /  14 °C 56.3 °F /  13.5 °C 29.8in /  1008.1hPa Calm     97% 0in /  0.0mm 0 W/m2
05:55 57 °F /  13.9 °C 56.1 °F /  13.4 °C 29.8in /  1008.5hPa Calm     97% 0in /  0.0mm 0 W/m2
06:00 57 °F /  13.9 °C 56.1 °F /  13.4 °C 29.8in /  1008.5hPa Calm     97% 0in /  0.0mm 0 W/m2
06:05 57.2 °F /  14 °C 56.3 °F /  13.5 °C 29.8in /  1008.1hPa Calm     97% 0in /  0.0mm 5 W/m2
06:10 57 °F /  13.9 °C 56.1 °F /  13.4 °C 29.8in /  1008.1hPa Calm     97% 0in /  0.0mm 7 W/m2
06:15 57 °F /  13.9 °C 56.1 °F /  13.4 °C 29.8in /  1008.1hPa Calm     97% 0in /  0.0mm 11 W/m2
06:20 56.8 °F /  13.8 °C 55.9 °F /  13.3 °C 29.8in /  1008.5hPa Calm     97% 0in /  0.0mm 12 W/m2
06:25 56.8 °F /  13.8 °C 55.9 °F /  13.3 °C 29.8in /  1008.5hPa Calm     97% 0in /  0.0mm 16 W/m2
06:30 56.8 °F /  13.8 °C 55.9 °F /  13.3 °C 29.8in /  1008.1hPa Calm     97% 0in /  0.0mm 14 W/m2
06:35 57 °F /  13.9 °C 56.1 °F /  13.4 °C 29.8in /  1008.1hPa Calm     97% 0in /  0.0mm 23 W/m2
06:40 57.2 °F /  14 °C 56.3 °F /  13.5 °C 29.8in /  1008.5hPa Calm     97% 0in /  0.0mm 25 W/m2
06:45 57.4 °F /  14.1 °C 56.5 °F /  13.6 °C 29.8in /  1008.5hPa Calm     97% 0in /  0.0mm 32 W/m2
06:50 57.4 °F /  14.1 °C 56.5 °F /  13.6 °C 29.8in /  1008.5hPa Calm     97% 0in /  0.0mm 30 W/m2
06:55 57.6 °F /  14.2 °C 56.7 °F /  13.7 °C 29.8in /  1008.5hPa Calm     97% 0in /  0.0mm 46 W/m2
07:00 57.7 °F /  14.3 °C 56.8 °F /  13.8 °C 29.8in /  1008.5hPa Calm     97% 0in /  0.0mm 49 W/m2
07:05 57.7 °F /  14.3 °C 56.8 °F /  13.8 °C 29.8in /  1008.5hPa Calm     97% 0in /  0.0mm 58 W/m2
07:10 57.9 °F /  14.4 °C 57 °F /  13.9 °C 29.8in /  1008.5hPa Calm     97% 0in /  0.0mm 62 W/m2
07:15 58.1 °F /  14.5 °C 57.2 °F /  14 °C 29.8in /  1008.5hPa Calm     97% 0in /  0.0mm 60 W/m2
07:20 58.3 °F /  14.6 °C 57.4 °F /  14.1 °C 29.8in /  1008.8hPa Calm     97% 0in /  0.0mm 62 W/m2
07:25 58.3 °F /  14.6 °C 57.4 °F /  14.1 °C 29.8in /  1008.8hPa Calm     97% 0in /  0.0mm 83 W/m2
07:30 58.5 °F /  14.7 °C 57.6 °F /  14.2 °C 29.8in /  1008.8hPa Calm     97% 0in /  0.0mm 76 W/m2
07:35 58.5 °F /  14.7 °C 57.6 °F /  14.2 °C 29.8in /  1008.8hPa Calm   1mph /  1.6km/h 97% 0in /  0.0mm 84 W/m2
07:40 58.5 °F /  14.7 °C 57.6 °F /  14.2 °C 29.8in /  1008.5hPa Calm     97% 0in /  0.0mm 100 W/m2
07:45 58.6 °F /  14.8 °C 57.7 °F /  14.3 °C 29.8in /  1008.5hPa Calm   1mph /  1.6km/h 97% 0in /  0.0mm 104 W/m2
07:50 58.6 °F /  14.8 °C 57.7 °F /  14.3 °C 29.8in /  1008.8hPa Calm     97% 0in /  0.0mm 97 W/m2
07:55 58.8 °F /  14.9 °C 57.9 °F /  14.4 °C 29.8in /  1008.8hPa Calm     97% 0in /  0.0mm 130 W/m2
08:00 59.2 °F /  15.1 °C 58.3 °F /  14.6 °C 29.8in /  1008.8hPa Calm     97% 0in /  0.0mm 172 W/m2
08:05 59.2 °F /  15.1 °C 58.3 °F /  14.6 °C 29.8in /  1008.8hPa Calm     97% 0in /  0.0mm 123 W/m2
08:10 59.5 °F /  15.3 °C 58.6 °F /  14.8 °C 29.8in /  1008.5hPa Calm   1mph /  1.6km/h 97% 0in /  0.0mm 162 W/m2
08:15 59.7 °F /  15.4 °C 58.8 °F /  14.9 °C 29.8in /  1008.5hPa Calm     97% 0in /  0.0mm 158 W/m2
08:20 59.9 °F /  15.5 °C 59 °F /  15 °C 29.8in /  1008.5hPa Calm   1mph /  1.6km/h 97% 0in /  0.0mm 105 W/m2
Juneau County Weather
Compliments of Weather Underground - 2 mb